createdAt,value
2019-05-11T00:00:08.131Z,9.60
2019-05-11T00:01:07.639Z,9.60
2019-05-11T00:02:08.221Z,9.70
2019-05-11T00:03:07.697Z,9.60
2019-05-11T00:04:07.192Z,9.70
2019-05-11T00:05:05.186Z,9.60
2019-05-11T00:06:05.243Z,9.60
2019-05-11T00:07:05.266Z,9.60
2019-05-11T00:08:07.910Z,9.60
2019-05-11T00:09:07.483Z,9.60
2019-05-11T00:10:08.041Z,9.60
2019-05-11T00:11:05.092Z,9.60
2019-05-11T00:12:05.211Z,9.60
2019-05-11T00:13:05.297Z,9.60
2019-05-11T00:14:05.306Z,9.60
2019-05-11T00:15:05.311Z,9.60
2019-05-11T00:16:05.246Z,9.60
2019-05-11T00:17:05.372Z,9.60
2019-05-11T00:18:05.420Z,9.60
2019-05-11T00:19:05.588Z,9.60
2019-05-11T00:20:04.681Z,9.60
2019-05-11T00:21:04.881Z,9.60
2019-05-11T00:22:07.502Z,9.60
2019-05-11T00:23:05.568Z,9.60
2019-05-11T00:24:07.988Z,9.60
2019-05-11T00:25:07.595Z,9.60
2019-05-11T00:26:05.630Z,9.60
2019-05-11T00:27:04.906Z,9.70
2019-05-11T00:28:04.953Z,9.60
2019-05-11T00:29:07.651Z,9.60
2019-05-11T00:30:05.665Z,9.60
2019-05-11T00:31:04.705Z,9.60
2019-05-11T00:32:04.716Z,9.60
2019-05-11T00:33:04.820Z,9.60
2019-05-11T00:34:04.861Z,9.60
2019-05-11T00:35:07.565Z,9.60
2019-05-11T00:36:05.530Z,9.60
2019-05-11T00:37:08.237Z,9.60
2019-05-11T00:38:07.789Z,9.50
2019-05-11T00:39:09.840Z,9.50
2019-05-11T00:40:13.642Z,9.50
2019-05-11T00:41:07.415Z,9.50
2019-05-11T00:42:05.286Z,9.50
2019-05-11T00:43:05.416Z,9.50
2019-05-11T00:44:08.074Z,9.50
2019-05-11T00:45:07.367Z,9.50
2019-05-11T00:46:07.850Z,9.60
2019-05-11T00:47:04.760Z,9.50
2019-05-11T00:48:04.836Z,9.50
2019-05-11T00:49:05.003Z,9.50
2019-05-11T00:50:05.122Z,9.50
2019-05-11T00:51:05.141Z,9.50
2019-05-11T00:52:05.181Z,9.50
2019-05-11T00:53:07.728Z,9.50
2019-05-11T00:54:08.136Z,9.50
2019-05-11T00:55:10.152Z,9.40
2019-05-11T00:56:05.136Z,9.40
2019-05-11T00:57:05.528Z,9.40
2019-05-11T00:58:08.127Z,9.40
2019-05-11T00:59:20.852Z,9.40
2019-05-11T01:00:07.550Z,9.40
2019-05-11T01:01:05.485Z,9.40
2019-05-11T01:02:08.100Z,9.40
2019-05-11T01:03:05.097Z,9.40
2019-05-11T01:04:05.225Z,9.40
2019-05-11T01:05:05.417Z,9.40
2019-05-11T01:06:04.744Z,9.40
2019-05-11T01:07:04.810Z,9.30
2019-05-11T01:08:04.847Z,9.30
2019-05-11T01:09:09.957Z,9.30
2019-05-11T01:10:04.865Z,9.30
2019-05-11T01:11:07.566Z,9.30
2019-05-11T01:12:05.563Z,9.30
2019-05-11T01:13:05.692Z,9.30
2019-05-11T01:14:07.311Z,9.30
2019-05-11T01:15:05.268Z,9.30
2019-05-11T01:16:07.872Z,9.30
2019-05-11T01:17:04.816Z,9.30
2019-05-11T01:18:04.735Z,9.30
2019-05-11T01:19:05.088Z,9.30
2019-05-11T01:20:05.178Z,9.30
2019-05-11T01:21:12.934Z,9.30
2019-05-11T01:22:07.364Z,9.30
2019-05-11T01:23:07.856Z,9.30
2019-05-11T01:24:07.316Z,9.30
2019-05-11T01:25:07.826Z,9.30
2019-05-11T01:26:09.843Z,9.30
2019-05-11T01:27:07.199Z,9.30
2019-05-11T01:28:05.135Z,9.30
2019-05-11T01:29:07.943Z,9.30
2019-05-11T01:30:07.567Z,9.30
2019-05-11T01:31:05.540Z,9.30
2019-05-11T01:32:05.757Z,9.30
2019-05-11T01:33:07.987Z,9.30
2019-05-11T01:34:07.456Z,9.30
2019-05-11T01:35:05.333Z,9.30
2019-05-11T01:36:05.542Z,9.30
2019-05-11T01:37:09.855Z,9.30
2019-05-11T01:38:04.853Z,9.30
2019-05-11T01:39:04.910Z,9.30
2019-05-11T01:40:05.088Z,9.30
2019-05-11T01:41:05.144Z,9.30
2019-05-11T01:42:07.692Z,9.30
2019-05-11T01:43:05.789Z,9.30
2019-05-11T01:44:04.986Z,9.30
2019-05-11T01:45:05.378Z,9.30
2019-05-11T01:46:10.627Z,9.30
2019-05-11T01:47:05.692Z,9.30
2019-05-11T01:48:04.737Z,9.30
2019-05-11T01:49:07.328Z,9.30
2019-05-11T01:50:07.756Z,9.30
2019-05-11T01:51:04.666Z,9.30
2019-05-11T01:52:04.763Z,9.30
2019-05-11T01:53:04.955Z,9.30
2019-05-11T01:54:05.047Z,9.30
2019-05-11T01:55:07.613Z,9.30
2019-05-11T01:56:08.126Z,9.30
2019-05-11T01:57:07.580Z,9.30
2019-05-11T01:58:05.429Z,9.30
2019-05-11T01:59:08.017Z,9.30
2019-05-11T02:00:07.468Z,9.30
2019-05-11T02:01:05.382Z,9.30
2019-05-11T02:02:10.630Z,9.30
2019-05-11T02:03:08.192Z,9.40
2019-05-11T02:04:05.131Z,9.30
2019-05-11T02:05:07.342Z,9.40
2019-05-11T02:06:05.278Z,9.40
2019-05-11T02:07:05.328Z,9.40
2019-05-11T02:08:07.892Z,9.40
2019-05-11T02:09:04.956Z,9.30
2019-05-11T02:10:07.757Z,9.40
2019-05-11T02:11:15.223Z,9.30
2019-05-11T02:12:05.148Z,9.40
2019-05-11T02:13:05.256Z,9.40
2019-05-11T02:14:05.279Z,9.30
2019-05-11T02:15:05.326Z,9.40
2019-05-11T02:16:05.395Z,9.40
2019-05-11T02:17:08.050Z,9.30
2019-05-11T02:18:05.156Z,9.30
2019-05-11T02:19:05.244Z,9.30
2019-05-11T02:20:04.830Z,9.30
2019-05-11T02:21:07.494Z,9.30
2019-05-11T02:22:08.033Z,9.30
2019-05-11T02:23:05.026Z,9.30
2019-05-11T02:24:05.205Z,9.40
2019-05-11T02:25:05.249Z,9.30
2019-05-11T02:26:07.895Z,9.30
2019-05-11T02:27:04.782Z,9.30
2019-05-11T02:28:07.326Z,9.30
2019-05-11T02:29:07.733Z,9.30
2019-05-11T02:30:08.186Z,9.30
2019-05-11T02:31:05.220Z,9.30
2019-05-11T02:32:05.291Z,9.30
2019-05-11T02:33:08.017Z,9.30
2019-05-11T02:34:05.030Z,9.30
2019-05-11T02:35:07.820Z,9.30
2019-05-11T02:36:04.802Z,9.30
2019-05-11T02:37:07.461Z,9.40
2019-05-11T02:38:05.412Z,9.40
2019-05-11T02:39:08.141Z,9.40
2019-05-11T02:40:07.694Z,9.50
2019-05-11T02:41:08.198Z,9.50
2019-05-11T02:42:05.088Z,9.50
2019-05-11T02:43:05.145Z,9.50
2019-05-11T02:44:05.272Z,9.50
2019-05-11T02:45:11.174Z,9.50
2019-05-11T02:46:05.199Z,9.50
2019-05-11T02:47:05.270Z,9.60
2019-05-11T02:48:07.921Z,9.50
2019-05-11T02:49:07.393Z,9.60
2019-05-11T02:50:05.298Z,9.50
2019-05-11T02:51:05.325Z,9.60
2019-05-11T02:52:07.837Z,9.60
2019-05-11T02:53:04.716Z,9.60
2019-05-11T02:54:04.853Z,9.60
2019-05-11T02:55:04.948Z,9.60
2019-05-11T02:56:04.998Z,9.60
2019-05-11T02:57:05.103Z,9.60
2019-05-11T02:58:05.210Z,9.60
2019-05-11T02:59:07.958Z,9.60
2019-05-11T03:00:04.936Z,9.50
2019-05-11T03:01:07.666Z,9.50
2019-05-11T03:02:09.833Z,9.50
2019-05-11T03:03:04.891Z,9.50
2019-05-11T03:04:05.215Z,9.50
2019-05-11T03:05:05.436Z,9.50
2019-05-11T03:06:05.693Z,9.50
2019-05-11T03:07:12.377Z,9.50
2019-05-11T03:08:07.993Z,9.50
2019-05-11T03:09:07.544Z,9.50
2019-05-11T03:10:05.527Z,9.50
2019-05-11T03:11:08.332Z,9.50
2019-05-11T03:12:07.892Z,9.50
2019-05-11T03:13:04.955Z,9.50
2019-05-11T03:14:05.062Z,9.60
2019-05-11T03:15:05.311Z,9.60
2019-05-11T03:16:08.098Z,9.50
2019-05-11T03:17:05.164Z,9.60
2019-05-11T03:18:05.290Z,9.60
2019-05-11T03:19:10.490Z,9.50
2019-05-11T03:20:05.394Z,9.50
2019-05-11T03:21:05.465Z,9.50
2019-05-11T03:22:05.625Z,9.60
2019-05-11T03:23:07.414Z,9.60
2019-05-11T03:24:05.357Z,9.60
2019-05-11T03:25:05.428Z,9.60
2019-05-11T03:26:08.079Z,9.60
2019-05-11T03:27:05.036Z,9.60
2019-05-11T03:28:05.139Z,9.60
2019-05-11T03:29:07.922Z,9.60
2019-05-11T03:30:07.505Z,9.60
2019-05-11T03:31:05.564Z,9.60
2019-05-11T03:32:05.714Z,9.60
2019-05-11T03:33:04.851Z,9.60
2019-05-11T03:34:07.585Z,9.60
2019-05-11T03:35:05.576Z,9.60
2019-05-11T03:36:04.728Z,9.60
2019-05-11T03:37:07.353Z,9.60
2019-05-11T03:38:07.813Z,9.60
2019-05-11T03:39:07.425Z,9.60
2019-05-11T03:40:07.924Z,9.60
2019-05-11T03:41:07.431Z,9.60
2019-05-11T03:42:14.406Z,9.50
2019-05-11T03:43:05.411Z,9.60
2019-05-11T03:44:05.450Z,9.50
2019-05-11T03:45:04.881Z,9.50
2019-05-11T03:46:05.000Z,9.50
2019-05-11T03:47:05.182Z,9.50
2019-05-11T03:48:05.268Z,9.50
2019-05-11T03:49:05.572Z,9.50
2019-05-11T03:50:05.717Z,9.50
2019-05-11T03:51:04.816Z,9.50
2019-05-11T03:52:05.073Z,9.50
2019-05-11T03:53:07.833Z,9.50
2019-05-11T03:54:04.943Z,9.40
2019-05-11T03:55:05.068Z,9.50
2019-05-11T03:56:10.371Z,9.50
2019-05-11T03:57:05.454Z,9.50
2019-05-11T03:58:05.550Z,9.50
2019-05-11T03:59:08.133Z,9.50
2019-05-11T04:00:10.266Z,9.50
2019-05-11T04:01:07.863Z,9.50
2019-05-11T04:02:07.371Z,9.60
2019-05-11T04:03:07.878Z,9.50
2019-05-11T04:04:07.468Z,9.50
2019-05-11T04:05:05.413Z,9.50
2019-05-11T04:06:08.199Z,9.60
2019-05-11T04:07:05.434Z,9.50
2019-05-11T04:08:05.410Z,9.60
2019-05-11T04:09:05.648Z,9.60
2019-05-11T04:10:12.326Z,9.60
2019-05-11T04:11:10.326Z,9.50
2019-05-11T04:12:04.705Z,9.60
2019-05-11T04:13:09.943Z,9.50
2019-05-11T04:14:07.537Z,9.60
2019-05-11T04:15:05.472Z,9.50
2019-05-11T04:16:05.521Z,9.60
2019-05-11T04:17:05.675Z,9.60
2019-05-11T04:18:04.811Z,9.60
2019-05-11T04:19:04.910Z,9.60
2019-05-11T04:20:07.569Z,9.60
2019-05-11T04:21:08.130Z,9.60
2019-05-11T04:22:05.083Z,9.60
2019-05-11T04:23:05.181Z,9.60
2019-05-11T04:24:07.810Z,9.60
2019-05-11T04:25:05.165Z,9.50
2019-05-11T04:26:07.816Z,9.60
2019-05-11T04:27:07.298Z,9.60
2019-05-11T04:28:07.806Z,9.60
2019-05-11T04:29:07.213Z,9.60
2019-05-11T04:30:05.131Z,9.60
2019-05-11T04:31:05.136Z,9.60
2019-05-11T04:32:07.875Z,9.60
2019-05-11T04:33:04.818Z,9.60
2019-05-11T04:34:07.882Z,9.70
2019-05-11T04:35:04.937Z,9.60
2019-05-11T04:36:07.755Z,9.70
2019-05-11T04:37:04.906Z,9.60
2019-05-11T04:38:05.104Z,9.70
2019-05-11T04:39:10.280Z,9.60
2019-05-11T04:40:07.814Z,9.70
2019-05-11T04:41:04.802Z,9.60
2019-05-11T04:42:04.868Z,9.70
2019-05-11T04:43:05.011Z,9.60
2019-05-11T04:44:05.081Z,9.70
2019-05-11T04:45:05.160Z,9.70
2019-05-11T04:46:05.374Z,9.60
2019-05-11T04:47:05.493Z,9.70
2019-05-11T04:48:05.694Z,9.60
2019-05-11T04:49:04.825Z,9.60
2019-05-11T04:50:04.929Z,9.60
2019-05-11T04:51:07.550Z,9.60
2019-05-11T04:52:05.563Z,9.60
2019-05-11T04:53:04.797Z,9.60
2019-05-11T04:54:04.911Z,9.60
2019-05-11T04:55:04.807Z,9.60
2019-05-11T04:56:05.040Z,9.60
2019-05-11T04:57:05.251Z,9.60
2019-05-11T04:58:05.771Z,9.70
2019-05-11T04:59:10.261Z,9.70
2019-05-11T05:00:05.265Z,9.70
2019-05-11T05:01:05.366Z,9.70
2019-05-11T05:02:07.994Z,9.70
2019-05-11T05:03:05.362Z,9.70
2019-05-11T05:04:13.633Z,9.70
2019-05-11T05:05:05.562Z,9.70
2019-05-11T05:06:21.988Z,9.70
2019-05-11T05:07:10.237Z,9.70
2019-05-11T05:08:09.418Z,9.80
2019-05-11T05:09:05.119Z,9.80
2019-05-11T05:10:05.340Z,9.80
2019-05-11T05:11:08.136Z,9.80
2019-05-11T05:12:08.311Z,9.80
2019-05-11T05:13:10.446Z,9.80
2019-05-11T05:14:07.983Z,9.80
2019-05-11T05:15:07.739Z,9.80
2019-05-11T05:16:04.743Z,9.80
2019-05-11T05:17:04.918Z,9.80
2019-05-11T05:18:05.081Z,9.80
2019-05-11T05:19:05.417Z,9.80
2019-05-11T05:20:05.486Z,9.80
2019-05-11T05:21:05.608Z,9.80
2019-05-11T05:22:14.050Z,9.80
2019-05-11T05:23:04.834Z,9.80
2019-05-11T05:24:04.928Z,9.80
2019-05-11T05:25:08.134Z,9.80
2019-05-11T05:26:05.175Z,9.80
2019-05-11T05:27:05.248Z,9.80
2019-05-11T05:28:05.287Z,9.80
2019-05-11T05:29:05.589Z,9.80
2019-05-11T05:30:04.741Z,9.70
2019-05-11T05:31:07.614Z,9.80
2019-05-11T05:32:05.652Z,9.80
2019-05-11T05:33:04.766Z,9.70
2019-05-11T05:34:04.857Z,9.80
2019-05-11T05:35:07.554Z,9.70
2019-05-11T05:36:05.559Z,9.80
2019-05-11T05:37:10.713Z,9.70
2019-05-11T05:38:08.230Z,9.70
2019-05-11T05:39:08.512Z,9.70
2019-05-11T05:40:07.902Z,9.70
2019-05-11T05:41:04.894Z,9.70
2019-05-11T05:42:07.550Z,9.70
2019-05-11T05:43:05.528Z,9.70
2019-05-11T05:44:05.694Z,9.70
2019-05-11T05:45:05.015Z,9.80
2019-05-11T05:46:10.460Z,9.80
2019-05-11T05:47:05.436Z,9.70
2019-05-11T05:48:05.626Z,9.80
2019-05-11T05:49:07.538Z,9.80
2019-05-11T05:50:05.517Z,9.80
2019-05-11T05:51:07.316Z,9.80
2019-05-11T05:52:07.901Z,9.80
2019-05-11T05:53:07.476Z,9.80
2019-05-11T05:54:07.905Z,9.90
2019-05-11T05:55:07.407Z,9.80
2019-05-11T05:56:05.389Z,9.80
2019-05-11T05:57:05.449Z,9.80
2019-05-11T05:58:05.627Z,9.80
2019-05-11T05:59:07.388Z,9.80
2019-05-11T06:00:05.384Z,9.80
2019-05-11T06:01:10.160Z,9.80
2019-05-11T06:02:05.466Z,9.80
2019-05-11T06:03:05.586Z,9.80
2019-05-11T06:04:07.204Z,9.80
2019-05-11T06:05:07.819Z,9.80
2019-05-11T06:06:07.315Z,9.80
2019-05-11T06:07:07.696Z,9.70
2019-05-11T06:08:04.997Z,9.70
2019-05-11T06:09:05.352Z,9.80
2019-05-11T06:10:07.916Z,9.80
2019-05-11T06:11:04.841Z,9.70
2019-05-11T06:12:07.525Z,9.80
2019-05-11T06:13:08.015Z,9.80
2019-05-11T06:14:05.158Z,9.80
2019-05-11T06:15:07.893Z,9.80
2019-05-11T06:16:04.900Z,9.80
2019-05-11T06:17:05.038Z,9.70
2019-05-11T06:18:05.085Z,9.80
2019-05-11T06:19:05.399Z,9.80
2019-05-11T06:20:05.642Z,9.70
2019-05-11T06:21:05.551Z,9.80
2019-05-11T06:22:07.335Z,9.80
2019-05-11T06:23:05.398Z,9.80
2019-05-11T06:24:08.595Z,9.80
2019-05-11T06:25:05.218Z,9.80
2019-05-11T06:26:05.493Z,9.80
2019-05-11T06:27:16.634Z,9.80
2019-05-11T06:28:12.296Z,9.90
2019-05-11T06:29:07.849Z,9.90
2019-05-11T06:30:04.944Z,9.90
2019-05-11T06:31:05.137Z,10.00
2019-05-11T06:32:05.180Z,9.90
2019-05-11T06:33:05.184Z,9.90
2019-05-11T06:34:07.728Z,9.90
2019-05-11T06:35:04.766Z,9.90
2019-05-11T06:36:07.479Z,9.90
2019-05-11T06:37:10.422Z,9.90
2019-05-11T06:38:05.509Z,9.90
2019-05-11T06:39:04.961Z,10.00
2019-05-11T06:40:05.373Z,10.00
2019-05-11T06:41:05.782Z,9.90
2019-05-11T06:42:05.111Z,10.00
2019-05-11T06:43:05.259Z,10.00
2019-05-11T06:44:05.268Z,10.00
2019-05-11T06:45:07.311Z,10.00
2019-05-11T06:46:07.943Z,10.00
2019-05-11T06:47:10.042Z,10.00
2019-05-11T06:48:07.515Z,10.00
2019-05-11T06:49:05.661Z,10.00
2019-05-11T06:50:07.293Z,10.00
2019-05-11T06:51:07.779Z,10.00
2019-05-11T06:52:07.301Z,10.00
2019-05-11T06:53:07.865Z,10.00
2019-05-11T06:54:04.812Z,10.00
2019-05-11T06:55:07.579Z,10.00
2019-05-11T06:56:05.642Z,10.00
2019-05-11T06:57:07.540Z,10.00
2019-05-11T06:58:05.586Z,10.00
2019-05-11T06:59:07.331Z,10.00
2019-05-11T07:00:08.047Z,10.00
2019-05-11T07:01:05.007Z,10.00
2019-05-11T07:02:07.573Z,10.00
2019-05-11T07:03:08.128Z,10.00
2019-05-11T07:04:05.275Z,10.00
2019-05-11T07:05:06.512Z,10.00
2019-05-11T07:06:05.696Z,9.90
2019-05-11T07:07:07.435Z,10.00
2019-05-11T07:08:05.570Z,9.90
2019-05-11T07:09:05.020Z,9.90
2019-05-11T07:10:05.541Z,9.90
2019-05-11T07:11:04.801Z,9.90
2019-05-11T07:12:05.137Z,9.90
2019-05-11T07:13:05.530Z,9.90
2019-05-11T07:14:19.643Z,9.90
2019-05-11T07:15:05.490Z,9.90
2019-05-11T07:16:05.685Z,9.80
2019-05-11T07:17:04.920Z,9.90
2019-05-11T07:18:05.253Z,9.90
2019-05-11T07:19:05.437Z,9.90
2019-05-11T07:20:05.582Z,9.90
2019-05-11T07:21:04.771Z,9.90
2019-05-11T07:22:04.806Z,9.90
2019-05-11T07:23:07.452Z,9.90
2019-05-11T07:24:05.487Z,9.90
2019-05-11T07:25:08.458Z,9.80
2019-05-11T07:26:07.467Z,9.80
2019-05-11T07:27:05.408Z,9.80
2019-05-11T07:28:05.595Z,9.80
2019-05-11T07:29:05.608Z,9.80
2019-05-11T07:30:08.859Z,9.80
2019-05-11T07:31:05.155Z,9.80
2019-05-11T07:32:09.527Z,9.80
2019-05-11T07:33:08.115Z,9.80
2019-05-11T07:34:07.491Z,9.80
2019-05-11T07:35:08.530Z,9.80
2019-05-11T07:36:05.026Z,9.80
2019-05-11T07:37:05.209Z,9.80
2019-05-11T07:38:08.293Z,9.80
2019-05-11T07:39:05.417Z,9.80
2019-05-11T07:40:05.006Z,9.80
2019-05-11T07:41:08.715Z,9.80
2019-05-11T07:42:09.918Z,9.70
2019-05-11T07:43:07.192Z,9.80
2019-05-11T07:44:09.686Z,9.80
2019-05-11T07:45:05.536Z,9.70
2019-05-11T07:46:04.697Z,9.70
2019-05-11T07:47:07.908Z,9.70
2019-05-11T07:48:05.107Z,9.70
2019-05-11T07:49:05.074Z,9.70
2019-05-11T07:50:07.577Z,9.70
2019-05-11T07:51:05.438Z,9.70
2019-05-11T07:52:07.738Z,9.70
2019-05-11T07:53:05.351Z,9.70
2019-05-11T07:54:05.405Z,9.70
2019-05-11T07:55:08.619Z,9.70
2019-05-11T07:56:08.230Z,9.70
2019-05-11T07:57:08.010Z,9.80
2019-05-11T07:58:05.062Z,9.80
2019-05-11T07:59:04.934Z,9.80
2019-05-11T08:00:08.063Z,9.80
2019-05-11T08:01:05.172Z,9.80
2019-05-11T08:02:04.774Z,9.80
2019-05-11T08:03:09.906Z,9.90
2019-05-11T08:04:07.779Z,9.90
2019-05-11T08:05:05.017Z,9.80
2019-05-11T08:06:05.238Z,9.90
2019-05-11T08:07:08.125Z,9.90
2019-05-11T08:08:05.436Z,9.90
2019-05-11T08:09:08.605Z,9.90
2019-05-11T08:10:04.830Z,9.90
2019-05-11T08:11:04.955Z,9.90
2019-05-11T08:12:05.178Z,9.90
2019-05-11T08:13:05.465Z,9.90
2019-05-11T08:14:07.722Z,9.90
2019-05-11T08:15:13.490Z,9.80
2019-05-11T08:16:05.088Z,9.80
2019-05-11T08:17:08.692Z,9.80
2019-05-11T08:18:08.495Z,9.90
2019-05-11T08:19:07.048Z,9.80
2019-05-11T08:20:04.807Z,9.80
2019-05-11T08:21:05.003Z,9.80
2019-05-11T08:22:05.107Z,9.80
2019-05-11T08:23:10.446Z,9.70
2019-05-11T08:24:05.436Z,9.70
2019-05-11T08:25:09.172Z,9.80
2019-05-11T08:26:08.455Z,9.80
2019-05-11T08:27:05.527Z,9.70
2019-05-11T08:28:07.024Z,9.70
2019-05-11T08:29:08.056Z,9.80
2019-05-11T08:30:05.261Z,9.70
2019-05-11T08:31:08.213Z,9.70
2019-05-11T08:32:08.251Z,9.60
2019-05-11T08:33:05.361Z,9.80
2019-05-11T08:34:08.808Z,9.70
2019-05-11T08:35:05.070Z,9.70
2019-05-11T08:36:08.395Z,9.70
2019-05-11T08:37:05.681Z,9.70
2019-05-11T08:38:08.778Z,9.70
2019-05-11T08:39:04.851Z,9.80
2019-05-11T08:40:08.124Z,9.80
2019-05-11T08:41:07.767Z,9.70
2019-05-11T08:42:08.683Z,9.80
2019-05-11T08:43:04.896Z,9.70
2019-05-11T08:44:05.073Z,9.80
2019-05-11T08:45:16.861Z,9.80
2019-05-11T08:46:07.716Z,9.80
2019-05-11T08:47:10.106Z,9.70
2019-05-11T08:48:05.136Z,9.80
2019-05-11T08:49:08.605Z,9.70
2019-05-11T08:50:04.754Z,9.70
2019-05-11T08:51:08.355Z,9.80
2019-05-11T08:52:04.681Z,9.70
2019-05-11T08:53:04.990Z,9.80
2019-05-11T08:54:08.916Z,9.80
2019-05-11T08:55:08.329Z,9.80
2019-05-11T08:56:04.757Z,9.70
2019-05-11T08:57:08.199Z,9.70
2019-05-11T08:58:08.090Z,9.70
2019-05-11T08:59:07.382Z,9.70
2019-05-11T09:00:05.317Z,9.70
2019-05-11T09:01:05.506Z,9.70
2019-05-11T09:02:07.832Z,9.80
2019-05-11T09:03:05.436Z,9.80
2019-05-11T09:04:05.666Z,9.70
2019-05-11T09:05:08.334Z,9.70
2019-05-11T09:06:05.522Z,9.70
2019-05-11T09:07:07.658Z,9.70
2019-05-11T09:08:05.027Z,9.80
2019-05-11T09:09:05.174Z,9.80
2019-05-11T09:10:05.328Z,9.70
2019-05-11T09:11:04.888Z,9.80
2019-05-11T09:12:05.037Z,9.70
2019-05-11T09:13:08.247Z,9.80
2019-05-11T09:14:05.382Z,9.80
2019-05-11T09:15:08.702Z,9.70
2019-05-11T09:16:04.859Z,9.80
2019-05-11T09:17:07.880Z,9.80
2019-05-11T09:18:05.057Z,9.80
2019-05-11T09:19:05.212Z,9.80
2019-05-11T09:20:05.421Z,9.80
2019-05-11T09:21:06.157Z,9.80
2019-05-11T09:22:05.388Z,9.80
2019-05-11T09:23:04.928Z,9.70
2019-05-11T09:24:08.378Z,9.80
2019-05-11T09:25:08.783Z,9.80
2019-05-11T09:26:05.093Z,9.80
2019-05-11T09:27:10.252Z,9.80
2019-05-11T09:28:08.516Z,9.80
2019-05-11T09:29:09.897Z,9.80
2019-05-11T09:30:08.257Z,9.80
2019-05-11T09:31:08.593Z,9.80
2019-05-11T09:32:08.789Z,9.80
2019-05-11T09:33:08.548Z,9.80
2019-05-11T09:34:09.073Z,9.80
2019-05-11T09:35:05.208Z,9.80
2019-05-11T09:36:08.481Z,9.80
2019-05-11T09:37:07.885Z,9.80
2019-05-11T09:38:08.092Z,9.80
2019-05-11T09:39:05.351Z,9.90
2019-05-11T09:40:07.212Z,9.90
2019-05-11T09:41:04.965Z,9.90
2019-05-11T09:42:04.875Z,9.80
2019-05-11T09:43:05.456Z,9.90
2019-05-11T09:44:05.684Z,9.80
2019-05-11T09:45:07.966Z,9.80
2019-05-11T09:46:08.403Z,9.90
2019-05-11T09:47:08.447Z,9.80
2019-05-11T09:48:08.726Z,9.80
2019-05-11T09:49:10.209Z,9.80
2019-05-11T09:50:05.274Z,9.80
2019-05-11T09:51:07.573Z,9.90
2019-05-11T09:52:07.882Z,9.90
2019-05-11T09:53:08.582Z,9.90
2019-05-11T09:54:07.568Z,9.90
2019-05-11T09:55:04.736Z,9.90
2019-05-11T09:56:10.042Z,9.90
2019-05-11T09:57:08.310Z,9.90
2019-05-11T09:58:08.558Z,10.00
2019-05-11T09:59:05.638Z,9.90
2019-05-11T10:00:08.792Z,9.90
2019-05-11T10:01:08.801Z,10.00
2019-05-11T10:02:05.147Z,9.90
2019-05-11T10:03:08.183Z,10.00
2019-05-11T10:04:10.495Z,10.00
2019-05-11T10:05:08.489Z,10.00
2019-05-11T10:06:08.051Z,10.00
2019-05-11T10:07:05.478Z,10.00
2019-05-11T10:08:04.888Z,10.00
2019-05-11T10:09:07.493Z,10.10
2019-05-11T10:10:05.265Z,10.10
2019-05-11T10:11:08.428Z,10.10
2019-05-11T10:12:07.900Z,10.00
2019-05-11T10:13:05.379Z,10.10
2019-05-11T10:14:08.307Z,10.10
2019-05-11T10:15:08.454Z,10.10
2019-05-11T10:16:07.806Z,10.10
2019-05-11T10:17:04.921Z,10.20
2019-05-11T10:18:07.906Z,10.20
2019-05-11T10:19:13.183Z,10.20
2019-05-11T10:20:05.546Z,10.20
2019-05-11T10:21:04.998Z,10.20
2019-05-11T10:22:05.390Z,10.20
2019-05-11T10:23:05.287Z,10.20
2019-05-11T10:24:05.395Z,10.20
2019-05-11T10:25:05.371Z,10.20
2019-05-11T10:26:07.700Z,10.20
2019-05-11T10:27:08.148Z,10.20
2019-05-11T10:28:05.258Z,10.20
2019-05-11T10:29:07.952Z,10.20
2019-05-11T10:30:07.514Z,10.20
2019-05-11T10:31:05.842Z,10.20
2019-05-11T10:32:11.042Z,10.20
2019-05-11T10:33:07.653Z,10.20
2019-05-11T10:34:08.601Z,10.20
2019-05-11T10:35:07.640Z,10.20
2019-05-11T10:36:08.377Z,10.20
2019-05-11T10:37:05.077Z,10.20
2019-05-11T10:38:09.098Z,10.30
2019-05-11T10:39:07.844Z,10.30
2019-05-11T10:40:09.498Z,10.20
2019-05-11T10:41:10.460Z,10.20
2019-05-11T10:42:05.029Z,10.20
2019-05-11T10:43:07.693Z,10.20
2019-05-11T10:44:08.604Z,10.30
2019-05-11T10:45:09.024Z,10.30
2019-05-11T10:46:16.836Z,10.30
2019-05-11T10:47:05.227Z,10.30
2019-05-11T10:48:05.188Z,10.30
2019-05-11T10:49:11.703Z,10.30
2019-05-11T10:50:05.460Z,10.30
2019-05-11T10:51:07.589Z,10.30
2019-05-11T10:52:05.793Z,10.30
2019-05-11T10:53:08.149Z,10.40
2019-05-11T10:54:08.291Z,10.40
2019-05-11T10:55:07.445Z,10.40
2019-05-11T10:56:10.250Z,10.30
2019-05-11T10:57:05.675Z,10.30
2019-05-11T10:58:05.614Z,10.40
2019-05-11T10:59:07.734Z,10.40
2019-05-11T11:00:05.256Z,10.40
2019-05-11T11:01:09.994Z,10.40
2019-05-11T11:02:07.811Z,10.40
2019-05-11T11:03:08.609Z,10.40
2019-05-11T11:04:08.127Z,10.50
2019-05-11T11:05:08.160Z,10.40
2019-05-11T11:06:08.609Z,10.50
2019-05-11T11:07:10.095Z,10.50
2019-05-11T11:08:07.999Z,10.40
2019-05-11T11:09:07.722Z,10.50
2019-05-11T11:10:05.913Z,10.50
2019-05-11T11:11:04.870Z,10.50
2019-05-11T11:12:05.108Z,10.40
2019-05-11T11:13:08.452Z,10.40
2019-05-11T11:14:04.945Z,10.40
2019-05-11T11:15:07.511Z,10.40
2019-05-11T11:16:05.460Z,10.40
2019-05-11T11:17:05.572Z,10.50
2019-05-11T11:18:05.113Z,10.40
2019-05-11T11:19:07.429Z,10.40
2019-05-11T11:20:05.119Z,10.40
2019-05-11T11:21:05.757Z,10.50
2019-05-11T11:22:29.247Z,10.50
2019-05-11T11:23:05.578Z,10.50
2019-05-11T11:24:07.496Z,10.50
2019-05-11T11:25:07.878Z,10.50
2019-05-11T11:26:08.404Z,10.50
2019-05-11T11:27:08.616Z,10.60
2019-05-11T11:28:07.876Z,10.60
2019-05-11T11:29:05.433Z,10.60
2019-05-11T11:30:05.656Z,10.60
2019-05-11T11:31:10.106Z,10.60
2019-05-11T11:32:08.345Z,10.70
2019-05-11T11:33:15.122Z,10.70
2019-05-11T11:34:08.322Z,10.80
2019-05-11T11:35:05.242Z,10.70
2019-05-11T11:36:08.491Z,10.80
2019-05-11T11:37:05.339Z,10.80
2019-05-11T11:38:10.376Z,10.80
2019-05-11T11:39:04.961Z,10.80
2019-05-11T11:40:05.775Z,10.80
2019-05-11T11:41:10.699Z,10.80
2019-05-11T11:42:05.240Z,10.80
2019-05-11T11:43:05.609Z,10.80
2019-05-11T11:44:08.364Z,10.80
2019-05-11T11:45:04.970Z,10.80
2019-05-11T11:46:08.351Z,10.80
2019-05-11T11:47:05.050Z,10.80
2019-05-11T11:48:10.820Z,10.80
2019-05-11T11:49:05.388Z,10.80
2019-05-11T11:50:05.364Z,10.80
2019-05-11T11:51:05.038Z,10.80
2019-05-11T11:52:05.108Z,10.80
2019-05-11T11:53:05.192Z,10.80
2019-05-11T11:54:08.825Z,10.80
2019-05-11T11:55:08.437Z,10.80
2019-05-11T11:56:05.434Z,10.90
2019-05-11T11:57:07.501Z,10.90
2019-05-11T11:58:05.463Z,10.90
2019-05-11T11:59:05.331Z,10.90
2019-05-11T12:00:04.956Z,10.90
2019-05-11T12:01:08.080Z,10.90
2019-05-11T12:02:08.712Z,10.90
2019-05-11T12:03:07.749Z,10.90
2019-05-11T12:04:05.694Z,10.90
2019-05-11T12:05:05.416Z,10.90
2019-05-11T12:06:05.592Z,10.90
2019-05-11T12:07:05.815Z,10.90
2019-05-11T12:08:09.868Z,10.90
2019-05-11T12:09:05.470Z,10.90
2019-05-11T12:10:07.753Z,10.90
2019-05-11T12:11:07.760Z,10.90
2019-05-11T12:12:05.023Z,10.90
2019-05-11T12:13:10.310Z,10.90
2019-05-11T12:14:05.819Z,10.90
2019-05-11T12:15:05.868Z,10.90
2019-05-11T12:16:07.686Z,10.90
2019-05-11T12:17:07.882Z,10.90
2019-05-11T12:18:08.302Z,10.90
2019-05-11T12:19:05.327Z,10.90
2019-05-11T12:20:08.913Z,10.90
2019-05-11T12:21:07.943Z,11.00
2019-05-11T12:22:05.104Z,11.00
2019-05-11T12:23:05.672Z,11.00
2019-05-11T12:24:10.922Z,11.00
2019-05-11T12:25:10.084Z,11.00
2019-05-11T12:26:05.545Z,11.00
2019-05-11T12:27:08.023Z,11.00
2019-05-11T12:28:07.779Z,11.00
2019-05-11T12:29:07.994Z,11.00
2019-05-11T12:30:12.753Z,11.00
2019-05-11T12:31:10.384Z,11.10
2019-05-11T12:32:04.998Z,11.00
2019-05-11T12:33:05.356Z,11.10
2019-05-11T12:34:10.250Z,11.00
2019-05-11T12:35:06.021Z,11.10
2019-05-11T12:36:08.379Z,11.10
2019-05-11T12:37:08.479Z,11.10
2019-05-11T12:38:07.594Z,11.10
2019-05-11T12:39:05.502Z,11.10
2019-05-11T12:40:05.383Z,11.20
2019-05-11T12:41:05.430Z,11.20
2019-05-11T12:42:08.660Z,11.20
2019-05-11T12:43:05.031Z,11.20
2019-05-11T12:44:08.198Z,11.20
2019-05-11T12:45:07.414Z,11.20
2019-05-11T12:46:07.424Z,11.20
2019-05-11T12:47:20.902Z,11.40
2019-05-11T12:48:05.255Z,11.30
2019-05-11T12:49:07.303Z,11.40
2019-05-11T12:50:07.767Z,11.40
2019-05-11T12:51:07.766Z,11.50
2019-05-11T12:52:08.263Z,11.50
2019-05-11T12:53:05.031Z,11.50
2019-05-11T12:54:05.085Z,11.50
2019-05-11T12:55:10.873Z,11.60
2019-05-11T12:56:07.959Z,11.60
2019-05-11T12:57:04.993Z,11.60
2019-05-11T12:58:05.036Z,11.70
2019-05-11T12:59:08.001Z,11.80
2019-05-11T13:00:04.952Z,11.80
2019-05-11T13:01:05.732Z,11.80
2019-05-11T13:02:07.933Z,11.90
2019-05-11T13:03:07.855Z,11.90
2019-05-11T13:04:08.201Z,11.90
2019-05-11T13:05:05.560Z,11.90
2019-05-11T13:06:07.596Z,11.90
2019-05-11T13:07:05.915Z,11.90
2019-05-11T13:08:07.758Z,11.90
2019-05-11T13:09:07.312Z,11.90
2019-05-11T13:10:05.338Z,11.80
2019-05-11T13:11:13.015Z,11.80